Terminal Aerodrome Forecast
Issued by NWS Twin Cities, MN

Home | Current Version | Previous Version | Text Only | Print | Product List | Glossary Off
Versions: 1 2 3 4 5 6 7 8 9 10 11 12 13 14 15 16 17 18 19

849
FTUS43 KMPX 051123
TAFEAU
TAF
KEAU 051123Z 0512/0612 22006KT 6SM BR SCT020
      TEMPO 0512/0515 3SM BR BKN020
     FM051500 14009KT P6SM OVC060
     FM052000 17011KT P6SM OVC040
     FM060200 18012KT P6SM VCSH OVC025
     FM060800 23011KT P6SM OVC015=

USA.gov is the U.S. government's official web portal to all federal, state and local government web resources and services.